»·PEaware :: UAL2377 KIAH-KDEN

UAL2377 :: KIAH-KDEN

FLIGHT INFORMATION

Flight Status: Arrived
Operator:
United Airlines
More flights by this operator :: More flights under this callsign
Pilot: Thomas C. (28508)
Aircraft: BOEING 777-200
(B772)
More flights by this aircraft type
Origin: KIAH G Bush Intercontinental/Houst
United States
Destination: KDEN Denver Intl
United States
More flights between these airports :: More routes between these airports
Route: STYCK7 DOLEY FUZ SPS HALEN ZPLYN3
File this flight plan on PilotEdge
Remarks: PBN / A1B1C1D1L1O1S2 NAV / RNVD1E2A1 DOF / 200323 REG / N795UA EET / KZFW0022 KZAB0115 KZKC0120 KZDV0137 SEL / ASCF OPR / UAL PER / D RMK / TCAS
Altitude:
(Current/Filed)
40,000ft
Speed:
(Current/Filed)
479kts
Departed: 22-Mar-20 05:39 PM
Arrived: 22-Mar-20 07:57 PM
Distance/Time
Traveled:
749nm/2:17
Distance/Time
To Go:
Arrived

Flight Plot

Page will automatically refresh every two minutes.

Flight plan parsing failed; only flown route is shown


Map Options




Map Legend


Flown Route
Filed Route
Departure Airport
Arrival Airport
Navaid (VOR, NDB)
Fix

Horizontal Profiles

Position Reports

Time Latitude Longitude Heading Altitude Ground
Speed
22-Mar-20 17:04 29.983871 -95.335982 52 114ft 0kts
22-Mar-20 17:05 29.983871 -95.335982 52 114ft 0kts
22-Mar-20 17:06 29.983871 -95.335982 52 114ft 0kts
22-Mar-20 17:07 29.983871 -95.335982 52 114ft 0kts
22-Mar-20 17:08 29.983871 -95.335982 52 114ft 0kts
22-Mar-20 17:09 29.983871 -95.335982 52 114ft 0kts
22-Mar-20 17:10 29.983871 -95.335982 52 114ft 0kts
22-Mar-20 17:11 29.983871 -95.335982 52 114ft 0kts
22-Mar-20 17:12 29.983871 -95.335982 52 114ft 0kts
22-Mar-20 17:13 29.983871 -95.335982 52 114ft 0kts
22-Mar-20 17:14 29.983871 -95.335982 52 114ft 0kts
22-Mar-20 17:15 29.983871 -95.335982 52 114ft 0kts
22-Mar-20 17:16 29.983871 -95.335982 52 114ft 0kts
22-Mar-20 17:17 29.983871 -95.335982 52 114ft 0kts
22-Mar-20 17:18 29.983871 -95.335982 52 114ft 0kts
22-Mar-20 17:19 29.983871 -95.335982 52 114ft 0kts
22-Mar-20 17:20 29.983871 -95.335982 52 114ft 0kts
22-Mar-20 17:21 29.983871 -95.335982 52 114ft 0kts
22-Mar-20 17:22 29.983871 -95.335982 52 114ft 0kts
22-Mar-20 17:23 29.983871 -95.335982 52 114ft 0kts
22-Mar-20 17:24 29.983871 -95.335982 52 114ft 0kts
22-Mar-20 17:25 29.983871 -95.335982 52 114ft 0kts
22-Mar-20 17:26 29.983871 -95.335982 52 114ft 0kts
22-Mar-20 17:27 29.983871 -95.335983 52 114ft 0kts
22-Mar-20 17:28 29.983789 -95.336108 52 114ft 2kts
22-Mar-20 17:29 29.983584 -95.336719 115 114ft 2kts
22-Mar-20 17:30 29.983909 -95.336968 178 114ft 0kts
22-Mar-20 17:31 29.983909 -95.336968 178 114ft 0kts
22-Mar-20 17:32 29.983899 -95.336967 178 114ft 1kts
22-Mar-20 17:33 29.983336 -95.340137 294 114ft 15kts
22-Mar-20 17:34 29.983315 -95.345090 249 114ft 15kts
22-Mar-20 17:35 29.983250 -95.350872 270 114ft 12kts
22-Mar-20 17:36 29.986734 -95.353794 332 114ft 19kts
22-Mar-20 17:37 29.988146 -95.356991 244 114ft 15kts
22-Mar-20 17:38 29.975252 -95.350098 152 159ft 152kts
22-Mar-20 17:39 29.927176 -95.320443 152 2518ft 253kts
22-Mar-20 17:40 29.915140 -95.246773 50 7087ft 294kts
22-Mar-20 17:41 29.990807 -95.243698 312 10835ft 312kts
22-Mar-20 17:42 30.050115 -95.336126 304 13953ft 376kts
22-Mar-20 17:43 30.126933 -95.422956 328 18329ft 404kts
22-Mar-20 17:44 30.231691 -95.480395 328 21948ft 420kts
22-Mar-20 17:45 30.338842 -95.540799 328 25259ft 434kts
22-Mar-20 17:46 30.450203 -95.603804 328 28428ft 441kts
22-Mar-20 17:47 30.562429 -95.666441 330 31097ft 451kts
22-Mar-20 17:48 30.674431 -95.726199 329 35157ft 425kts
22-Mar-20 17:49 30.777929 -95.781650 329 38334ft 405kts
22-Mar-20 17:50 30.879351 -95.836097 328 40081ft 401kts
22-Mar-20 17:51 30.980926 -95.890757 328 40098ft 404kts
22-Mar-20 17:52 31.082701 -95.945635 328 40095ft 403kts
22-Mar-20 17:53 31.186871 -95.992134 333 40105ft 409kts
22-Mar-20 17:55 31.294626 -96.034019 333 40131ft 409kts
22-Mar-20 17:56 31.402555 -96.075966 333 40129ft 409kts
22-Mar-20 17:57 31.510679 -96.118080 333 40126ft 409kts
22-Mar-20 17:58 31.618578 -96.160205 333 40098ft 409kts
22-Mar-20 17:59 31.726101 -96.202290 333 40095ft 409kts
22-Mar-20 18:00 31.834071 -96.244652 333 40120ft 409kts
22-Mar-20 18:01 31.941612 -96.286950 333 40118ft 409kts
22-Mar-20 18:02 32.049424 -96.329460 332 40116ft 409kts
22-Mar-20 18:03 32.157393 -96.372234 331 40126ft 407kts
22-Mar-20 18:04 32.244802 -96.447950 312 40122ft 389kts
22-Mar-20 18:05 32.323116 -96.535411 312 40120ft 388kts
22-Mar-20 18:06 32.401238 -96.623485 311 40117ft 388kts
22-Mar-20 18:07 32.479280 -96.711762 311 40136ft 387kts
22-Mar-20 18:08 32.557054 -96.799953 311 40133ft 387kts
22-Mar-20 18:09 32.635042 -96.888614 311 40102ft 387kts
22-Mar-20 18:10 32.712695 -96.977120 311 40100ft 386kts
22-Mar-20 18:11 32.790533 -97.066062 311 40071ft 386kts
22-Mar-20 18:12 32.868041 -97.154855 310 40068ft 386kts
22-Mar-20 18:12 32.930367 -97.231153 308 40065ft 384kts
22-Mar-20 18:14 33.014325 -97.337459 308 40077ft 383kts
22-Mar-20 18:15 33.080014 -97.420874 308 40067ft 384kts
22-Mar-20 18:15 33.140767 -97.498188 308 40067ft 383kts
22-Mar-20 18:16 33.213707 -97.591236 308 40065ft 383kts
22-Mar-20 18:18 33.298451 -97.699667 307 40083ft 383kts
22-Mar-20 18:18 33.358744 -97.776998 307 40082ft 382kts
22-Mar-20 18:19 33.431181 -97.870136 307 40106ft 382kts
22-Mar-20 18:20 33.503398 -97.963234 307 40103ft 382kts
22-Mar-20 18:21 33.575524 -98.056463 307 40100ft 382kts
22-Mar-20 18:22 33.647651 -98.149939 307 40097ft 381kts
22-Mar-20 18:23 33.719694 -98.243555 307 40094ft 381kts
22-Mar-20 18:24 33.791277 -98.336820 307 40091ft 381kts
22-Mar-20 18:25 33.863022 -98.430546 307 40061ft 380kts
22-Mar-20 18:26 33.934543 -98.524227 307 40059ft 380kts
22-Mar-20 18:27 34.010238 -98.613053 317 40062ft 391kts
22-Mar-20 18:28 34.096953 -98.688589 315 40076ft 389kts
22-Mar-20 18:29 34.184964 -98.765210 315 40084ft 389kts
22-Mar-20 18:30 34.272762 -98.841816 315 40054ft 388kts
22-Mar-20 18:31 34.360161 -98.918276 315 40051ft 388kts
22-Mar-20 18:32 34.447495 -98.994878 315 40049ft 388kts
22-Mar-20 18:33 34.534670 -99.071541 315 40046ft 388kts
22-Mar-20 18:34 34.621688 -99.148270 315 40043ft 388kts
22-Mar-20 18:35 34.708596 -99.225105 315 40041ft 387kts
22-Mar-20 18:36 34.795723 -99.302339 314 40038ft 387kts
22-Mar-20 18:37 34.882443 -99.379416 314 40035ft 387kts
22-Mar-20 18:38 34.969145 -99.456689 314 40033ft 387kts
22-Mar-20 18:39 35.055847 -99.534176 314 40030ft 387kts
22-Mar-20 18:40 35.142335 -99.611669 314 40034ft 388kts
22-Mar-20 18:41 35.229451 -99.689939 314 40056ft 388kts
22-Mar-20 18:42 35.316420 -99.768284 314 40056ft 388kts
22-Mar-20 18:43 35.403229 -99.846702 314 40053ft 389kts
22-Mar-20 18:44 35.490129 -99.925418 314 40050ft 389kts
22-Mar-20 18:45 35.577204 -100.004512 314 40047ft 391kts
22-Mar-20 18:46 35.664244 -100.083779 314 39991ft 390kts
22-Mar-20 18:47 35.751522 -100.163508 314 39988ft 391kts
22-Mar-20 18:48 35.838703 -100.243357 314 39985ft 391kts
22-Mar-20 18:49 35.925867 -100.323417 314 39983ft 392kts
22-Mar-20 18:50 36.012924 -100.403608 314 39981ft 392kts
22-Mar-20 18:51 36.100182 -100.484210 314 39978ft 393kts
22-Mar-20 18:52 36.187723 -100.565294 314 39982ft 393kts
22-Mar-20 18:53 36.275138 -100.646502 314 39980ft 393kts
22-Mar-20 18:54 36.362643 -100.728033 313 40002ft 393kts
22-Mar-20 18:55 36.449819 -100.809483 313 39999ft 394kts
22-Mar-20 18:56 36.537390 -100.891541 313 39997ft 394kts
22-Mar-20 18:57 36.624842 -100.973724 313 40020ft 395kts
22-Mar-20 18:58 36.712563 -101.056412 313 40019ft 396kts
22-Mar-20 18:59 36.800140 -101.139192 313 40016ft 396kts
22-Mar-20 19:00 36.887971 -101.222465 313 40014ft 396kts
22-Mar-20 19:01 36.975757 -101.305938 313 40011ft 396kts
22-Mar-20 19:02 37.063865 -101.389975 313 40009ft 397kts
22-Mar-20 19:03 37.151384 -101.473691 313 40012ft 397kts
22-Mar-20 19:04 37.239109 -101.557858 313 40009ft 397kts
22-Mar-20 19:05 37.327219 -101.642655 313 40034ft 398kts
22-Mar-20 19:06 37.415385 -101.727761 313 40067ft 397kts
22-Mar-20 19:07 37.502835 -101.812432 313 40106ft 398kts
22-Mar-20 19:08 37.590210 -101.897285 313 40104ft 398kts
22-Mar-20 19:09 37.678045 -101.982847 313 40102ft 398kts
22-Mar-20 19:10 37.765877 -102.068671 313 40099ft 399kts
22-Mar-20 19:11 37.850569 -102.157791 304 40098ft 388kts
22-Mar-20 19:12 37.924197 -102.258429 305 40094ft 390kts
22-Mar-20 19:13 37.998340 -102.359128 305 40092ft 390kts
22-Mar-20 19:14 38.072153 -102.459640 305 40062ft 390kts
22-Mar-20 19:15 38.146302 -102.560920 305 40063ft 390kts
22-Mar-20 19:16 38.220250 -102.662265 305 40077ft 390kts
22-Mar-20 19:17 38.294443 -102.764265 305 40081ft 390kts
22-Mar-20 19:18 38.367859 -102.865513 305 40079ft 390kts
22-Mar-20 19:19 38.441519 -102.967464 304 40076ft 390kts
22-Mar-20 19:20 38.514961 -103.069407 304 40074ft 390kts
22-Mar-20 19:21 38.588372 -103.171712 304 39301ft 393kts
22-Mar-20 19:22 38.660822 -103.272956 304 37525ft 381kts
22-Mar-20 19:23 38.732504 -103.373500 304 36006ft 383kts
22-Mar-20 19:24 38.804350 -103.474326 303 34259ft 384kts
22-Mar-20 19:25 38.875057 -103.574251 304 32520ft 369kts
22-Mar-20 19:26 38.942194 -103.669547 304 30891ft 360kts
22-Mar-20 19:27 39.011632 -103.768321 306 29305ft 380kts
22-Mar-20 19:28 39.083444 -103.870738 307 27576ft 392kts
22-Mar-20 19:29 39.156018 -103.974506 307 25800ft 379kts
22-Mar-20 19:30 39.220015 -104.066224 308 24262ft 318kts
22-Mar-20 19:31 39.285243 -104.144900 320 22836ft 322kts
22-Mar-20 19:32 39.360389 -104.205947 323 21418ft 318kts
22-Mar-20 19:33 39.434498 -104.266260 323 20013ft 310kts
22-Mar-20 19:34 39.505387 -104.324244 323 17220ft 297kts
22-Mar-20 19:35 39.574904 -104.381217 323 15830ft 289kts
22-Mar-20 19:36 39.643837 -104.437881 324 15817ft 294kts
22-Mar-20 19:37 39.713781 -104.495495 324 14602ft 297kts
22-Mar-20 19:38 39.791621 -104.523025 355 13248ft 300kts
22-Mar-20 19:39 39.874227 -104.522187 355 11987ft 291kts
22-Mar-20 19:40 39.948518 -104.521147 355 11037ft 240kts
22-Mar-20 19:41 40.015364 -104.519101 356 10972ft 238kts
22-Mar-20 19:42 40.081748 -104.510773 1 9877ft 239kts
22-Mar-20 19:43 40.147804 -104.501674 1 8898ft 234kts
22-Mar-20 19:44 40.212149 -104.493960 1 7964ft 229kts
22-Mar-20 19:45 40.275179 -104.487482 1 7037ft 226kts
22-Mar-20 19:46 40.314568 -104.523869 247 7010ft 222kts
22-Mar-20 19:47 40.256558 -104.554550 198 6991ft 234kts
22-Mar-20 19:48 40.193404 -104.575742 198 6989ft 235kts
22-Mar-20 19:49 40.130035 -104.596996 198 6990ft 235kts
22-Mar-20 19:50 40.068861 -104.617297 198 6969ft 206kts
22-Mar-20 19:51 40.017226 -104.633577 198 6994ft 189kts
22-Mar-20 19:52 39.966111 -104.649821 198 6970ft 189kts
22-Mar-20 19:53 39.918231 -104.659258 181 6494ft 153kts
22-Mar-20 19:54 39.877176 -104.659989 179 5727ft 147kts
22-Mar-20 19:55 39.844514 -104.660364 180 5409ft 56kts
22-Mar-20 19:56 39.841608 -104.662531 358 5418ft 12kts
22-Mar-20 19:57 39.847938 -104.662446 0 5405ft 27kts
22-Mar-20 19:58 39.855544 -104.662360 359 5399ft 22kts
22-Mar-20 19:59 39.856702 -104.665402 249 5388ft 10kts
22-Mar-20 20:00 39.857310 -104.669076 272 5388ft 12kts
22-Mar-20 20:01 39.857358 -104.674342 294 5388ft 5kts
22-Mar-20 20:02 39.858042 -104.674580 359 5388ft 0kts
22-Mar-20 20:03 39.858042 -104.674580 359 5388ft 0kts
22-Mar-20 20:05 39.858042 -104.674580 359 5388ft 0kts
22-Mar-20 20:06 39.858042 -104.674580 359 5388ft 0kts
22-Mar-20 20:07 39.858042 -104.674580 359 5388ft 0kts
22-Mar-20 20:08 39.858042 -104.674580 359 5388ft 0kts
22-Mar-20 20:09 39.858042 -104.674580 359 5388ft 0kts
22-Mar-20 20:10 39.858042 -104.674580 359 5388ft 0kts

Navigation Log

Ident Type
Flight plan parsing failed, navigation log unavailable